createdAt,value
2022-09-07T00:00:57.168Z,62.90
2022-09-07T00:03:24.950Z,63.10
2022-09-07T00:05:52.957Z,63.10
2022-09-07T00:08:23.963Z,63.10
2022-09-07T00:10:57.066Z,63.30
2022-09-07T00:13:26.915Z,63.20
2022-09-07T00:15:54.514Z,63.10
2022-09-07T00:18:22.503Z,63.10
2022-09-07T00:21:01.126Z,63.10
2022-09-07T00:23:30.269Z,63.60
2022-09-07T00:26:06.898Z,63.60
2022-09-07T00:28:35.020Z,63.80
2022-09-07T00:31:03.383Z,63.70
2022-09-07T00:33:31.379Z,63.80
2022-09-07T00:35:59.240Z,64.00
2022-09-07T00:38:27.142Z,64.20
2022-09-07T00:40:54.828Z,64.40
2022-09-07T00:43:35.432Z,64.60
2022-09-07T00:46:05.050Z,64.80
2022-09-07T00:48:43.710Z,64.80
2022-09-07T00:51:27.446Z,64.80
2022-09-07T00:54:06.512Z,64.70
2022-09-07T00:56:39.029Z,64.60
2022-09-07T00:59:09.178Z,64.80
2022-09-07T01:01:38.323Z,64.90
2022-09-07T01:04:06.549Z,64.90
2022-09-07T01:06:36.779Z,64.80
2022-09-07T01:09:10.134Z,65.10
2022-09-07T01:11:38.670Z,65.70
2022-09-07T01:14:10.372Z,65.00
2022-09-07T01:16:59.667Z,65.20
2022-09-07T01:19:27.201Z,65.40
2022-09-07T01:22:13.809Z,65.30
2022-09-07T01:24:54.622Z,65.40
2022-09-07T01:27:43.509Z,65.60
2022-09-07T01:30:19.442Z,65.60
2022-09-07T01:32:47.098Z,65.80
2022-09-07T01:35:40.021Z,65.70
2022-09-07T01:38:38.333Z,65.60
2022-09-07T01:41:27.895Z,65.50
2022-09-07T01:44:07.136Z,65.60
2022-09-07T01:46:39.143Z,65.60
2022-09-07T01:49:13.943Z,65.60
2022-09-07T01:51:45.968Z,65.80
2022-09-07T01:54:30.406Z,65.90
2022-09-07T01:57:02.854Z,66.20
2022-09-07T01:59:38.017Z,65.90
2022-09-07T02:02:16.715Z,66.00
2022-09-07T02:04:50.948Z,66.30
2022-09-07T02:07:18.173Z,66.40
2022-09-07T02:09:56.357Z,66.40
2022-09-07T02:13:01.999Z,66.60
2022-09-07T02:15:41.774Z,66.50
2022-09-07T02:18:13.807Z,66.70
2022-09-07T02:20:47.677Z,66.50
2022-09-07T02:23:20.568Z,66.60
2022-09-07T02:25:56.772Z,66.80
2022-09-07T02:28:33.227Z,67.00
2022-09-07T02:31:00.849Z,66.90
2022-09-07T02:33:29.128Z,66.80
2022-09-07T02:35:57.339Z,66.90
2022-09-07T02:38:25.263Z,67.00
2022-09-07T02:40:55.203Z,67.20
2022-09-07T02:43:24.596Z,67.30
2022-09-07T02:46:10.373Z,67.40
2022-09-07T02:49:03.936Z,67.70
2022-09-07T02:51:39.981Z,67.80
2022-09-07T02:54:44.472Z,67.60
2022-09-07T02:57:38.660Z,68.00
2022-09-07T03:00:13.306Z,67.80
2022-09-07T03:03:08.663Z,68.00
2022-09-07T03:05:50.306Z,68.20
2022-09-07T03:08:36.004Z,68.10
2022-09-07T03:11:07.396Z,68.30
2022-09-07T03:13:35.235Z,68.30
2022-09-07T03:16:03.124Z,68.10
2022-09-07T03:18:33.479Z,68.10
2022-09-07T03:21:01.131Z,68.20
2022-09-07T03:23:28.656Z,68.00
2022-09-07T03:25:56.143Z,68.10
2022-09-07T03:28:23.937Z,69.00
2022-09-07T03:30:51.402Z,68.20
2022-09-07T03:33:19.192Z,68.20
2022-09-07T03:35:58.012Z,68.00
2022-09-07T03:38:25.575Z,68.10
2022-09-07T03:41:05.303Z,67.80
2022-09-07T03:43:33.411Z,68.30
2022-09-07T03:46:04.316Z,68.40
2022-09-07T03:48:33.991Z,68.70
2022-09-07T03:51:04.723Z,68.80
2022-09-07T03:53:34.171Z,68.90
2022-09-07T03:56:13.865Z,69.10
2022-09-07T03:58:41.909Z,69.40
2022-09-07T04:01:12.109Z,69.40
2022-09-07T04:03:39.940Z,69.60
2022-09-07T04:06:07.547Z,69.40
2022-09-07T04:08:36.546Z,69.50
2022-09-07T04:11:06.352Z,69.50
2022-09-07T04:13:35.524Z,69.40
2022-09-07T04:16:18.773Z,69.40
2022-09-07T04:18:46.337Z,69.50
2022-09-07T04:21:14.076Z,69.10
2022-09-07T04:23:42.455Z,69.10
2022-09-07T04:26:19.887Z,69.10
2022-09-07T04:28:48.221Z,69.20
2022-09-07T04:31:18.150Z,68.90
2022-09-07T04:33:48.907Z,68.80
2022-09-07T04:36:18.070Z,68.80
2022-09-07T04:38:46.299Z,68.80
2022-09-07T04:41:16.975Z,68.80
2022-09-07T04:43:45.608Z,68.90
2022-09-07T04:46:16.275Z,68.80
2022-09-07T04:48:43.966Z,68.80
2022-09-07T04:51:11.650Z,69.30
2022-09-07T04:53:39.194Z,69.50
2022-09-07T04:56:07.020Z,69.50
2022-09-07T04:58:36.235Z,69.70
2022-09-07T05:01:05.909Z,69.70
2022-09-07T05:03:36.921Z,69.90
2022-09-07T05:06:07.246Z,69.70
2022-09-07T05:08:49.522Z,69.80
2022-09-07T05:11:18.635Z,69.90
2022-09-07T05:13:46.586Z,70.00
2022-09-07T05:16:17.144Z,69.60
2022-09-07T05:18:45.395Z,69.40
2022-09-07T05:21:15.542Z,69.30
2022-09-07T05:23:43.999Z,69.20
2022-09-07T05:26:12.465Z,69.00
2022-09-07T05:28:40.136Z,69.10
2022-09-07T05:31:18.090Z,68.60
2022-09-07T05:36:36.263Z,67.50
2022-09-07T05:39:05.854Z,67.30
2022-09-07T05:41:33.784Z,67.10
2022-09-07T05:46:49.412Z,66.90
2022-09-07T05:49:16.959Z,66.90
2022-09-07T05:51:44.502Z,67.00
2022-09-07T05:54:12.132Z,67.00
2022-09-07T05:56:39.809Z,67.00
2022-09-07T05:59:07.595Z,67.00
2022-09-07T06:01:35.877Z,67.00
2022-09-07T06:04:03.523Z,66.90
2022-09-07T06:06:31.396Z,67.00
2022-09-07T06:08:59.948Z,67.10
2022-09-07T06:11:27.793Z,67.20
2022-09-07T06:13:55.874Z,67.10
2022-09-07T06:16:23.757Z,67.00
2022-09-07T06:18:51.289Z,66.60
2022-09-07T06:21:23.666Z,65.90
2022-09-07T06:23:51.973Z,65.60
2022-09-07T06:26:19.853Z,65.80
2022-09-07T06:28:49.865Z,65.60
2022-09-07T06:31:21.554Z,65.00
2022-09-07T06:33:50.156Z,63.80
2022-09-07T06:36:21.404Z,63.20
2022-09-07T06:38:50.377Z,62.30
2022-09-07T06:44:18.343Z,61.60
2022-09-07T06:49:29.263Z,61.60
2022-09-07T06:51:57.073Z,62.10
2022-09-07T06:57:12.563Z,62.60
2022-09-07T06:59:40.385Z,60.70
2022-09-07T07:02:11.437Z,59.10
2022-09-07T07:04:41.053Z,58.50
2022-09-07T07:07:13.995Z,57.60
2022-09-07T07:09:42.260Z,57.20
2022-09-07T07:12:11.592Z,57.10
2022-09-07T07:14:43.976Z,56.60
2022-09-07T07:17:13.205Z,56.70
2022-09-07T07:19:40.772Z,56.70
2022-09-07T07:22:23.997Z,56.70
2022-09-07T07:24:55.814Z,56.90
2022-09-07T07:27:23.511Z,57.10
2022-09-07T07:29:52.402Z,57.20
2022-09-07T07:32:20.109Z,57.50
2022-09-07T07:34:48.077Z,57.70
2022-09-07T07:37:16.020Z,58.00
2022-09-07T07:42:32.600Z,58.70
2022-09-07T07:47:51.465Z,59.20
2022-09-07T07:50:34.766Z,59.20
2022-09-07T07:55:50.824Z,59.60
2022-09-07T07:58:18.906Z,59.70
2022-09-07T08:00:55.936Z,59.70
2022-09-07T08:03:25.361Z,59.80
2022-09-07T08:05:54.445Z,59.80
2022-09-07T08:08:23.509Z,59.60
2022-09-07T08:10:51.608Z,59.60
2022-09-07T08:13:19.205Z,59.50
2022-09-07T08:15:47.088Z,59.60
2022-09-07T08:18:17.174Z,59.10
2022-09-07T08:20:45.007Z,58.90
2022-09-07T08:23:12.518Z,59.00
2022-09-07T08:25:54.892Z,57.80
2022-09-07T08:28:23.481Z,57.20
2022-09-07T08:30:51.190Z,57.00
2022-09-07T08:33:18.947Z,56.60
2022-09-07T08:35:56.583Z,55.90
2022-09-07T08:38:24.563Z,55.50
2022-09-07T08:40:52.853Z,55.60
2022-09-07T08:43:47.056Z,54.60
2022-09-07T08:46:38.549Z,54.00
2022-09-07T08:49:13.369Z,53.80
2022-09-07T08:51:46.369Z,53.60
2022-09-07T08:54:16.693Z,53.60
2022-09-07T08:59:46.436Z,54.20
2022-09-07T09:02:35.420Z,53.30
2022-09-07T09:05:21.143Z,52.90
2022-09-07T09:08:16.563Z,52.40
2022-09-07T09:11:10.392Z,51.80
2022-09-07T09:14:08.993Z,51.10
2022-09-07T09:16:44.986Z,49.60
2022-09-07T09:19:46.025Z,49.50
2022-09-07T09:22:17.968Z,48.70
2022-09-07T09:25:02.680Z,47.10
2022-09-07T09:27:30.142Z,46.20
2022-09-07T09:29:57.466Z,45.90
2022-09-07T09:32:39.844Z,45.40
2022-09-07T09:35:25.799Z,44.30
2022-09-07T09:37:53.651Z,43.70
2022-09-07T09:40:24.695Z,43.30
2022-09-07T09:43:20.719Z,43.50
2022-09-07T09:48:41.433Z,44.30
2022-09-07T09:54:06.259Z,44.50
2022-09-07T09:56:42.364Z,44.70
2022-09-07T10:05:26.383Z,43.80
2022-09-07T10:07:54.112Z,43.50
2022-09-07T10:10:22.352Z,43.50
2022-09-07T10:12:54.171Z,43.60
2022-09-07T10:15:40.644Z,43.40
2022-09-07T10:18:22.451Z,44.20
2022-09-07T10:20:50.589Z,44.20
2022-09-07T10:23:23.887Z,44.10
2022-09-07T10:25:51.927Z,43.90
2022-09-07T10:28:22.981Z,43.90
2022-09-07T10:31:08.065Z,43.80
2022-09-07T10:37:03.899Z,44.30
2022-09-07T10:40:13.673Z,44.00
2022-09-07T10:45:41.420Z,43.40
2022-09-07T10:48:14.453Z,43.40
2022-09-07T10:50:51.632Z,43.50
2022-09-07T10:53:46.625Z,43.10
2022-09-07T10:56:24.148Z,42.70
2022-09-07T10:59:05.151Z,41.90
2022-09-07T11:01:38.813Z,41.80
2022-09-07T11:04:21.032Z,41.10
2022-09-07T11:07:01.851Z,41.20
2022-09-07T11:09:34.917Z,41.00
2022-09-07T11:12:14.945Z,41.00
2022-09-07T11:14:50.022Z,41.40
2022-09-07T11:17:21.607Z,41.40
2022-09-07T11:19:51.851Z,41.20
2022-09-07T11:22:28.062Z,41.70
2022-09-07T11:25:34.314Z,41.80
2022-09-07T11:28:26.239Z,40.80
2022-09-07T11:31:00.377Z,40.50
2022-09-07T11:36:56.287Z,40.60
2022-09-07T11:39:30.163Z,40.60
2022-09-07T11:45:01.015Z,40.90
2022-09-07T11:47:39.198Z,40.60
2022-09-07T11:50:20.837Z,40.80
2022-09-07T11:53:10.772Z,41.00
2022-09-07T11:55:42.893Z,40.60
2022-09-07T11:58:25.109Z,40.80
2022-09-07T12:01:06.944Z,40.90
2022-09-07T12:03:46.534Z,41.00
2022-09-07T12:06:43.187Z,41.20
2022-09-07T12:09:17.824Z,41.00
2022-09-07T12:12:27.067Z,40.80
2022-09-07T12:15:24.314Z,41.00
2022-09-07T12:18:17.936Z,41.20
2022-09-07T12:20:47.755Z,41.30
2022-09-07T12:23:15.369Z,40.70
2022-09-07T12:25:45.312Z,41.00
2022-09-07T12:28:24.931Z,40.20
2022-09-07T12:31:06.734Z,40.60
2022-09-07T12:33:37.368Z,40.40
2022-09-07T12:36:30.323Z,40.10
2022-09-07T12:39:21.334Z,40.50
2022-09-07T12:42:31.993Z,40.00
2022-09-07T12:44:39.720Z,40.10
2022-09-07T12:47:12.972Z,39.90
2022-09-07T12:49:42.916Z,40.00
2022-09-07T12:52:46.299Z,40.20
2022-09-07T12:56:15.617Z,40.30
2022-09-07T12:58:28.399Z,40.40
2022-09-07T13:01:15.001Z,40.50
2022-09-07T13:04:23.095Z,40.50
2022-09-07T13:07:03.945Z,40.80
2022-09-07T13:09:35.376Z,40.80
2022-09-07T13:15:38.564Z,41.10
2022-09-07T13:18:06.628Z,41.10
2022-09-07T13:20:39.707Z,40.60
2022-09-07T13:23:25.663Z,40.70
2022-09-07T13:25:56.181Z,40.90
2022-09-07T13:28:41.220Z,40.70
2022-09-07T13:31:24.601Z,40.60
2022-09-07T13:33:53.371Z,40.60
2022-09-07T13:36:25.401Z,40.60
2022-09-07T13:38:54.371Z,40.60
2022-09-07T13:41:26.155Z,40.50
2022-09-07T13:44:02.168Z,40.70
2022-09-07T13:46:49.328Z,40.70
2022-09-07T13:49:40.948Z,40.80
2022-09-07T13:52:23.192Z,40.70
2022-09-07T13:55:26.986Z,40.70
2022-09-07T13:58:31.860Z,40.60
2022-09-07T14:01:04.648Z,40.20
2022-09-07T14:03:45.272Z,40.40
2022-09-07T14:06:21.846Z,40.50
2022-09-07T14:08:52.771Z,40.70
2022-09-07T14:11:24.006Z,40.80
2022-09-07T14:14:16.245Z,40.70
2022-09-07T14:17:02.570Z,40.60
2022-09-07T14:19:41.404Z,40.20
2022-09-07T14:22:21.830Z,39.80
2022-09-07T14:25:04.663Z,39.80
2022-09-07T14:27:41.564Z,39.60
2022-09-07T14:30:28.235Z,39.10
2022-09-07T14:33:11.047Z,39.10
2022-09-07T14:35:40.269Z,39.20
2022-09-07T14:41:15.807Z,39.20
2022-09-07T14:43:55.265Z,39.10
2022-09-07T14:46:26.542Z,39.10
2022-09-07T14:48:56.480Z,39.40
2022-09-07T14:51:36.661Z,39.40
2022-09-07T14:54:06.704Z,39.60
2022-09-07T14:56:37.558Z,39.70
2022-09-07T14:59:28.240Z,39.70
2022-09-07T15:02:18.597Z,39.60
2022-09-07T15:04:47.418Z,39.80
2022-09-07T15:07:38.199Z,39.30
2022-09-07T15:10:23.537Z,39.30
2022-09-07T15:12:56.953Z,39.10
2022-09-07T15:15:29.775Z,38.70
2022-09-07T15:18:06.038Z,38.70
2022-09-07T15:20:44.295Z,38.60
2022-09-07T15:23:19.551Z,38.60
2022-09-07T15:25:53.624Z,38.20
2022-09-07T15:34:19.296Z,38.60
2022-09-07T15:36:49.348Z,38.70
2022-09-07T15:39:19.474Z,39.50
2022-09-07T15:41:47.628Z,38.80
2022-09-07T15:44:15.440Z,38.80
2022-09-07T15:47:43.284Z,39.00
2022-09-07T15:49:31.567Z,38.90
2022-09-07T15:52:06.864Z,39.10
2022-09-07T15:54:36.860Z,39.00
2022-09-07T15:59:54.326Z,38.70
2022-09-07T16:05:10.104Z,38.50
2022-09-07T16:10:26.259Z,38.70
2022-09-07T16:13:02.251Z,38.70
2022-09-07T16:15:31.518Z,39.10
2022-09-07T16:17:58.973Z,39.10
2022-09-07T16:20:32.033Z,39.30
2022-09-07T16:23:16.155Z,39.20
2022-09-07T16:25:58.846Z,39.30
2022-09-07T16:28:27.213Z,39.50
2022-09-07T16:30:56.255Z,39.70
2022-09-07T16:33:31.591Z,40.00
2022-09-07T16:36:09.982Z,40.00
2022-09-07T16:38:45.481Z,40.10
2022-09-07T16:41:14.129Z,40.00
2022-09-07T16:43:41.895Z,40.20
2022-09-07T16:46:14.190Z,40.40
2022-09-07T16:48:42.889Z,40.90
2022-09-07T16:51:12.888Z,40.90
2022-09-07T16:53:40.361Z,41.10
2022-09-07T16:56:10.411Z,41.20
2022-09-07T16:58:41.686Z,41.40
2022-09-07T17:01:12.844Z,41.20
2022-09-07T17:03:41.085Z,41.40
2022-09-07T17:06:10.803Z,41.40
2022-09-07T17:08:42.760Z,41.40
2022-09-07T17:11:12.468Z,41.70
2022-09-07T17:13:41.283Z,41.80
2022-09-07T17:16:13.085Z,42.00
2022-09-07T17:21:34.013Z,41.90
2022-09-07T17:24:04.315Z,42.10
2022-09-07T17:26:32.703Z,42.00
2022-09-07T17:29:01.183Z,42.30
2022-09-07T17:34:19.731Z,42.50
2022-09-07T17:36:47.566Z,42.70
2022-09-07T17:39:17.629Z,43.10
2022-09-07T17:41:48.134Z,43.50
2022-09-07T17:44:16.140Z,44.20
2022-09-07T17:46:43.676Z,44.10
2022-09-07T17:49:14.000Z,44.40
2022-09-07T17:51:41.671Z,44.40
2022-09-07T17:54:13.594Z,44.30
2022-09-07T17:56:42.088Z,44.50
2022-09-07T18:01:57.876Z,45.00
2022-09-07T18:04:25.520Z,45.70
2022-09-07T18:06:54.469Z,46.20
2022-09-07T18:09:22.275Z,46.90
2022-09-07T18:11:50.542Z,46.70
2022-09-07T18:14:19.078Z,47.10
2022-09-07T18:16:49.480Z,47.30
2022-09-07T18:19:18.621Z,47.30
2022-09-07T18:21:47.826Z,47.10
2022-09-07T18:24:22.311Z,47.10
2022-09-07T18:26:52.418Z,47.40
2022-09-07T18:29:29.529Z,47.50
2022-09-07T18:32:00.103Z,48.30
2022-09-07T18:34:28.906Z,48.40
2022-09-07T18:36:58.138Z,48.90
2022-09-07T18:39:26.253Z,48.90
2022-09-07T18:41:54.763Z,49.00
2022-09-07T18:47:22.241Z,49.40
2022-09-07T18:49:51.600Z,49.70
2022-09-07T18:55:09.897Z,50.50
2022-09-07T18:57:38.423Z,50.40
2022-09-07T19:00:08.686Z,50.50
2022-09-07T19:02:37.555Z,50.70
2022-09-07T19:07:53.085Z,50.90
2022-09-07T19:10:20.582Z,51.20
2022-09-07T19:12:48.198Z,51.30
2022-09-07T19:15:15.936Z,51.40
2022-09-07T19:17:43.437Z,51.50
2022-09-07T19:20:11.066Z,51.80
2022-09-07T19:22:38.967Z,52.20
2022-09-07T19:25:06.917Z,52.30
2022-09-07T19:27:34.504Z,52.40
2022-09-07T19:30:02.099Z,52.60
2022-09-07T19:32:29.788Z,52.60
2022-09-07T19:34:57.268Z,52.70
2022-09-07T19:37:25.457Z,53.00
2022-09-07T19:39:56.885Z,52.90
2022-09-07T19:42:25.581Z,53.00
2022-09-07T19:44:54.067Z,53.20
2022-09-07T19:47:23.144Z,53.40
2022-09-07T19:49:52.146Z,53.60
2022-09-07T19:52:19.719Z,53.40
2022-09-07T19:54:47.230Z,53.70
2022-09-07T19:57:14.924Z,53.70
2022-09-07T19:59:42.482Z,53.80
2022-09-07T20:02:13.349Z,53.90
2022-09-07T20:04:40.710Z,54.40
2022-09-07T20:07:07.984Z,54.10
2022-09-07T20:09:36.788Z,54.30
2022-09-07T20:12:06.718Z,54.70
2022-09-07T20:14:34.427Z,54.80
2022-09-07T20:17:02.409Z,54.80
2022-09-07T20:19:30.227Z,54.80
2022-09-07T20:21:57.704Z,55.00
2022-09-07T20:24:25.996Z,55.00
2022-09-07T20:26:53.465Z,55.10
2022-09-07T20:29:27.875Z,55.30
2022-09-07T20:31:58.543Z,55.40
2022-09-07T20:34:27.739Z,55.60
2022-09-07T20:36:55.882Z,55.80
2022-09-07T20:39:23.270Z,55.80
2022-09-07T20:41:51.129Z,55.90
2022-09-07T20:44:18.872Z,56.10
2022-09-07T20:46:46.162Z,56.10
2022-09-07T20:49:13.517Z,56.20
2022-09-07T20:51:41.185Z,56.20
2022-09-07T20:54:08.710Z,56.30
2022-09-07T20:56:36.023Z,56.40
2022-09-07T20:59:03.886Z,56.60
2022-09-07T21:01:32.395Z,56.70
2022-09-07T21:04:01.063Z,56.90
2022-09-07T21:06:30.627Z,57.00
2022-09-07T21:08:58.837Z,57.20
2022-09-07T21:11:33.759Z,57.10
2022-09-07T21:14:07.208Z,57.50
2022-09-07T21:16:35.826Z,57.30
2022-09-07T21:19:05.869Z,57.30
2022-09-07T21:21:39.080Z,57.80
2022-09-07T21:24:14.465Z,57.80
2022-09-07T21:26:41.812Z,57.80
2022-09-07T21:29:16.255Z,58.30
2022-09-07T21:31:43.832Z,58.90
2022-09-07T21:34:11.423Z,58.70
2022-09-07T21:36:38.783Z,58.50
2022-09-07T21:39:07.644Z,58.70
2022-09-07T21:41:36.044Z,59.00
2022-09-07T21:44:03.675Z,59.40
2022-09-07T21:46:33.039Z,59.50
2022-09-07T21:49:01.158Z,59.50
2022-09-07T21:51:30.027Z,59.80
2022-09-07T21:54:00.515Z,59.90
2022-09-07T21:56:29.429Z,59.70
2022-09-07T21:58:58.938Z,59.60
2022-09-07T22:01:28.068Z,59.70
2022-09-07T22:04:01.628Z,60.00
2022-09-07T22:06:30.057Z,60.00
2022-09-07T22:08:58.548Z,59.90
2022-09-07T22:11:27.816Z,60.00
2022-09-07T22:13:57.266Z,60.00
2022-09-07T22:16:25.177Z,59.90
2022-09-07T22:18:52.621Z,59.70
2022-09-07T22:21:23.931Z,59.80
2022-09-07T22:23:55.567Z,59.80
2022-09-07T22:26:25.004Z,59.90
2022-09-07T22:28:52.688Z,59.70
2022-09-07T22:31:23.212Z,59.70
2022-09-07T22:33:51.858Z,59.60
2022-09-07T22:36:24.417Z,59.60
2022-09-07T22:38:56.201Z,59.70
2022-09-07T22:41:26.505Z,59.70
2022-09-07T22:43:54.420Z,59.70
2022-09-07T22:46:23.686Z,59.70
2022-09-07T22:48:52.852Z,59.70
2022-09-07T22:51:20.086Z,59.80
2022-09-07T22:53:47.344Z,59.80
2022-09-07T22:56:18.382Z,60.10
2022-09-07T22:58:47.844Z,60.70
2022-09-07T23:01:16.104Z,61.10
2022-09-07T23:03:44.203Z,60.90
2022-09-07T23:06:28.163Z,61.30
2022-09-07T23:08:58.724Z,61.20
2022-09-07T23:11:26.419Z,60.90
2022-09-07T23:13:55.471Z,61.00
2022-09-07T23:16:23.688Z,60.90
2022-09-07T23:18:51.780Z,60.90
2022-09-07T23:21:19.061Z,61.00
2022-09-07T23:23:52.069Z,61.00
2022-09-07T23:26:23.547Z,61.30
2022-09-07T23:28:56.227Z,61.60
2022-09-07T23:31:24.794Z,61.30
2022-09-07T23:33:52.564Z,61.30
2022-09-07T23:36:20.380Z,61.60
2022-09-07T23:38:48.236Z,62.20
2022-09-07T23:41:17.901Z,62.00
2022-09-07T23:43:45.851Z,62.00
2022-09-07T23:46:14.204Z,62.00
2022-09-07T23:48:45.792Z,62.10
2022-09-07T23:51:18.708Z,62.50
2022-09-07T23:53:49.107Z,62.40
2022-09-07T23:56:16.489Z,62.30
2022-09-07T23:58:44.043Z,62.40
